Time;durP1;ratioP1;P1;durP2;ratioP2;P2;SDS_P1;SDS_P2;PMS_P1;PMS_P2;Temp;Humidity;BMP_temperature;BMP_pressure;BME280_temperature;BME280_humidity;BME280_pressure;Samples;Min_cycle;Max_cycle;Signal;HPM_P1;HPM_P2
2022/01/19 00:03:05;;;;;;;3.53;2.63;;;;;;;6.55;53.79;99589.09;8493182;27;20224;-68
2022/01/19 00:07:08;;;;;;;2.83;1.70;;;;;;;6.18;54.79;99576.31;8517751;27;20229;-67
2022/01/19 00:11:12;;;;;;;2.60;2.23;;;;;;;6.26;54.06;99559.13;8517611;27;20232;-68
2022/01/19 00:15:15;;;;;;;2.47;1.60;;;;;;;5.82;55.59;99544.56;8517601;27;20229;-68
2022/01/19 00:19:18;;;;;;;1.80;1.70;;;;;;;6.03;55.33;99515.44;8517728;27;20419;-68
2022/01/19 00:23:21;;;;;;;1.97;1.77;;;;;;;5.95;55.07;99518.03;8517100;27;20228;-68
2022/01/19 00:27:25;;;;;;;3.00;1.77;;;;;;;5.98;54.87;99519.75;8466266;27;20234;-68
2022/01/19 00:31:28;;;;;;;2.20;1.87;;;;;;;6.38;54.32;99501.69;8449360;28;20248;-68
2022/01/19 00:35:31;;;;;;;2.30;1.90;;;;;;;6.55;53.66;99497.31;8449165;28;20222;-69
2022/01/19 00:39:34;;;;;;;2.70;2.00;;;;;;;6.17;54.12;99511.16;8449086;28;20226;-68
2022/01/19 00:43:38;;;;;;;2.00;1.80;;;;;;;6.49;53.81;99504.19;8449057;28;20230;-68
2022/01/19 00:47:43;;;;;;;2.87;2.07;;;;;;;5.93;54.99;99490.56;8449198;28;20370;-68
2022/01/19 00:51:46;;;;;;;3.57;2.30;;;;;;;6.36;54.63;99498.22;8449003;28;20241;-68
2022/01/19 00:55:50;;;;;;;3.40;2.60;;;;;;;5.78;55.63;99470.88;8448738;28;20237;-68
2022/01/19 00:59:55;;;;;;;2.87;2.40;;;;;;;5.75;56.26;99470.88;8448486;28;20230;-68
2022/01/19 01:03:57;;;;;;;2.80;2.40;;;;;;;6.07;55.48;99465.72;8448269;28;20238;-67
2022/01/19 01:08:00;;;;;;;2.40;2.20;;;;;;;5.88;55.58;99458.00;8448608;28;20229;-68
2022/01/19 01:12:11;;;;;;;5.10;2.60;;;;;;;6.04;55.51;99453.72;8448310;28;20588;-68
2022/01/19 01:16:18;;;;;;;3.03;2.50;;;;;;;6.28;55.31;99446.78;8448104;28;20240;-68
2022/01/19 01:20:22;;;;;;;3.80;3.07;;;;;;;6.18;55.48;99448.53;8448371;28;20259;-67
2022/01/19 01:24:25;;;;;;;4.57;3.23;;;;;;;6.20;55.94;99443.38;8448220;28;20226;-69
2022/01/19 01:28:28;;;;;;;4.70;3.30;;;;;;;6.16;55.46;99426.25;8448026;28;20230;-68
2022/01/19 01:32:33;;;;;;;4.23;3.20;;;;;;;6.11;56.01;99413.41;8446170;28;20230;-70
2022/01/19 01:36:35;;;;;;;3.87;2.90;;;;;;;5.98;56.10;99407.44;8447340;28;20229;-68
2022/01/19 01:40:39;;;;;;;3.30;3.00;;;;;;;6.28;55.75;99395.31;8447549;28;20285;-68
2022/01/19 01:44:45;;;;;;;4.03;3.03;;;;;;;6.53;55.16;99410.66;8449503;28;20435;-68
2022/01/19 01:48:49;;;;;;;5.33;3.17;;;;;;;6.58;54.98;99421.78;8449339;28;20202;-68
2022/01/19 01:57:12;;;;;;;4.53;3.63;;;;;;;6.55;53.88;99417.53;8447671;28;20226;-68
2022/01/19 02:01:17;;;;;;;5.00;3.97;;;;;;;6.57;54.54;99427.81;8447143;28;20230;-68
2022/01/19 02:05:23;;;;;;;5.30;4.03;;;;;;;6.82;53.88;99408.78;8447233;28;20552;-68
2022/01/19 02:09:31;;;;;;;5.33;4.10;;;;;;;6.49;54.07;99412.38;8447291;28;20284;-68
2022/01/19 02:22:16;;;;;;;5.67;3.83;;;;;;;6.81;53.80;99370.16;8446965;28;20230;-68
2022/01/19 02:26:26;;;;;;;4.03;3.63;;;;;;;7.02;53.56;99375.16;8447140;28;20234;-68
2022/01/19 02:43:29;;;;;;;4.00;3.37;;;;;;;6.87;53.40;99343.53;8447272;28;20230;-68
2022/01/19 02:51:54;;;;;;;5.43;3.47;;;;;;;6.82;53.13;99323.81;8452531;28;20237;-68
2022/01/19 02:55:59;;;;;;;3.83;2.93;;;;;;;6.84;53.44;99324.66;8452946;28;20230;-68
2022/01/19 03:08:50;;;;;;;3.73;3.00;;;;;;;6.76;53.58;99320.41;8485561;28;20521;-68
2022/01/19 03:12:54;;;;;;;4.03;3.23;;;;;;;6.77;53.15;99320.41;8485554;28;20504;-68
2022/01/19 03:16:57;;;;;;;4.53;3.47;;;;;;;6.62;53.14;99318.78;8485675;28;20559;-68
2022/01/19 03:21:00;;;;;;;4.47;3.10;;;;;;;6.72;53.04;99304.16;8485548;28;20225;-68
2022/01/19 03:25:10;;;;;;;3.87;2.90;;;;;;;6.45;53.94;99297.47;8485424;28;20558;-68
2022/01/19 03:29:15;;;;;;;5.67;3.30;;;;;;;6.30;53.83;99298.41;8485525;28;20233;-68
2022/01/19 03:33:18;;;;;;;4.53;3.60;;;;;;;6.34;53.76;99294.09;8484756;28;20528;-68
2022/01/19 03:37:20;;;;;;;5.27;3.77;;;;;;;6.38;53.55;99295.81;8485088;28;20248;-68
2022/01/19 03:41:24;;;;;;;5.87;4.00;;;;;;;6.39;53.81;99293.22;8484872;28;20226;-68
2022/01/19 03:45:28;;;;;;;4.43;3.63;;;;;;;6.30;54.07;99293.25;8484975;28;20237;-68
2022/01/19 03:49:33;;;;;;;5.80;3.80;;;;;;;6.43;53.68;99299.19;8450388;28;20221;-68
2022/01/19 03:53:37;;;;;;;4.17;3.70;;;;;;;6.34;54.07;99301.81;8450984;28;20241;-69
2022/01/19 03:57:40;;;;;;;4.80;3.30;;;;;;;6.30;53.88;99297.56;8449641;28;20236;-68
2022/01/19 04:01:45;;;;;;;3.83;3.27;;;;;;;6.18;53.24;99296.75;8450668;28;20233;-68
2022/01/19 04:05:57;;;;;;;3.73;2.77;;;;;;;6.24;53.04;99301.91;8450524;28;20241;-68
2022/01/19 04:10:00;;;;;;;2.97;2.63;;;;;;;6.14;53.18;99297.66;8450380;28;20226;-68
2022/01/19 04:18:21;;;;;;;7.03;4.47;;;;;;;6.04;53.71;99290.84;8449446;28;20234;-68
2022/01/19 04:22:24;;;;;;;9.67;6.23;;;;;;;5.98;53.98;99280.59;8450358;28;20529;-68
2022/01/19 04:26:27;;;;;;;13.47;7.43;;;;;;;6.01;53.90;99268.56;8449779;28;20226;-69
2022/01/19 04:30:30;;;;;;;12.43;6.93;;;;;;;5.93;53.26;99252.28;8449862;28;20230;-69
2022/01/19 04:34:36;;;;;;;10.87;6.73;;;;;;;5.86;53.71;99241.19;8448571;28;20222;-68
2022/01/19 04:39:19;;;;;;;6.80;4.23;;;;;;;5.85;54.07;99238.63;8449350;28;20233;-68
2022/01/19 05:05:32;;;;;;;5.83;5.20;;;;;;;5.72;53.50;99201.84;8476242;28;20230;-67
2022/01/19 05:13:56;;;;;;;8.43;5.63;;;;;;;5.60;54.04;99200.19;8475759;28;20229;-67
2022/01/19 05:17:59;;;;;;;7.87;5.90;;;;;;;5.60;53.57;99181.34;8475867;28;20226;-67
2022/01/19 05:22:02;;;;;;;7.90;6.23;;;;;;;5.57;53.85;99181.34;8475910;28;20229;-67
2022/01/19 05:26:06;;;;;;;8.13;6.40;;;;;;;5.68;53.89;99184.72;8476221;28;20225;-67
2022/01/19 05:30:10;;;;;;;7.23;6.17;;;;;;;5.60;54.09;99179.63;8475481;28;20236;-67
2022/01/19 05:34:13;;;;;;;8.00;6.03;;;;;;;5.53;54.39;99167.66;8475465;28;20241;-67
2022/01/19 05:38:16;;;;;;;8.67;6.40;;;;;;;5.48;54.52;99172.84;8475348;28;20226;-68
2022/01/19 05:42:20;;;;;;;10.10;6.57;;;;;;;5.49;54.03;99176.25;8475578;28;20229;-67
2022/01/19 05:46:23;;;;;;;7.63;6.00;;;;;;;5.58;53.59;99165.06;8474925;28;20225;-67
2022/01/19 05:50:27;;;;;;;6.33;5.07;;;;;;;5.35;53.86;99160.03;8474560;28;20583;-67
2022/01/19 05:54:30;;;;;;;7.07;5.17;;;;;;;5.44;54.39;99150.56;8453435;28;20231;-67
2022/01/19 05:58:34;;;;;;;5.37;4.43;;;;;;;5.49;53.85;99142.84;8451520;28;20221;-67
2022/01/19 06:02:37;;;;;;;9.23;5.93;;;;;;;5.45;54.15;99139.44;8457667;28;20232;-67
2022/01/19 06:06:40;;;;;;;6.17;5.47;;;;;;;5.51;54.85;99135.97;8447838;28;20232;-67
2022/01/19 06:10:44;;;;;;;9.00;5.67;;;;;;;5.59;54.83;99133.38;8450853;28;20226;-67
2022/01/19 06:14:48;;;;;;;6.83;5.73;;;;;;;5.66;54.85;99132.47;8451716;28;20452;-67
2022/01/19 06:18:51;;;;;;;6.70;5.23;;;;;;;5.60;55.10;99123.09;8451183;28;20238;-67
2022/01/19 06:22:54;;;;;;;8.03;5.97;;;;;;;5.65;55.08;99121.34;8451237;28;20401;-68
2022/01/19 06:26:57;;;;;;;7.07;5.50;;;;;;;5.56;55.08;99128.22;8451214;28;20233;-67
2022/01/19 06:31:02;;;;;;;6.40;5.60;;;;;;;5.66;55.29;99125.63;8450481;28;20241;-68
2022/01/19 06:35:06;;;;;;;9.93;6.30;;;;;;;5.72;55.34;99124.72;8444868;28;20236;-67
2022/01/19 06:39:09;;;;;;;8.57;6.07;;;;;;;5.71;55.40;99114.44;8450496;28;20241;-67
2022/01/19 06:43:12;;;;;;;8.97;6.70;;;;;;;5.75;54.90;99093.88;8450865;28;20230;-67
2022/01/19 06:47:17;;;;;;;8.93;6.73;;;;;;;5.75;55.09;99088.72;8450570;28;20230;-67
2022/01/19 06:51:20;;;;;;;9.77;7.40;;;;;;;5.73;55.21;99082.75;8450389;28;20234;-67
2022/01/19 06:55:22;;;;;;;11.23;9.80;;;;;;;5.78;54.92;99075.84;8450488;28;20560;-67
2022/01/19 06:59:26;;;;;;;10.47;8.67;;;;;;;5.70;55.21;99079.34;8450509;28;20240;-67
2022/01/19 07:03:32;;;;;;;12.00;8.30;;;;;;;5.71;54.86;99065.59;8477939;27;20236;-67
2022/01/19 07:07:35;;;;;;;8.93;7.40;;;;;;;5.58;55.01;99057.13;8483580;27;20232;-67
2022/01/19 07:11:38;;;;;;;11.93;9.10;;;;;;;5.39;55.40;99044.41;8483312;28;20422;-68
2022/01/19 07:15:41;;;;;;;10.40;8.00;;;;;;;5.23;55.83;99030.78;8483179;28;20225;-67
2022/01/19 07:19:46;;;;;;;10.53;7.93;;;;;;;5.42;55.77;99030.69;8483677;28;20253;-67
2022/01/19 07:23:48;;;;;;;12.40;9.20;;;;;;;5.40;55.88;99022.13;8483312;28;20423;-67
2022/01/19 07:27:55;;;;;;;16.33;9.70;;;;;;;5.35;55.79;99017.06;8483046;28;20516;-67
2022/01/19 07:31:59;;;;;;;12.40;8.73;;;;;;;5.28;56.53;99010.25;8483314;28;20229;-67
2022/01/19 07:36:04;;;;;;;14.87;9.57;;;;;;;5.14;55.93;99006.88;8483281;28;20252;-67
2022/01/19 07:40:07;;;;;;;11.50;8.13;;;;;;;5.29;56.60;99012.81;8482835;27;20230;-67
2022/01/19 07:44:10;;;;;;;10.97;8.30;;;;;;;5.44;55.87;99011.81;8482575;28;20331;-67
2022/01/19 07:48:13;;;;;;;12.70;8.63;;;;;;;5.52;55.57;99003.22;8482768;28;20225;-67
2022/01/19 07:52:18;;;;;;;12.37;8.83;;;;;;;5.05;56.97;98992.41;8481895;27;20239;-67
2022/01/19 07:56:20;;;;;;;11.87;8.80;;;;;;;5.08;57.09;98979.53;8482059;28;20232;-67
2022/01/19 08:00:23;;;;;;;14.57;10.10;;;;;;;4.71;58.18;98982.31;8482048;28;20240;-67
2022/01/19 08:04:26;;;;;;;14.13;10.37;;;;;;;5.70;56.12;98982.53;8481988;28;20229;-67
2022/01/19 08:08:30;;;;;;;14.87;10.00;;;;;;;7.19;52.16;98974.84;8481737;27;20237;-67
2022/01/19 08:12:34;;;;;;;11.60;8.57;;;;;;;8.52;48.60;98971.72;8481346;28;20230;-67
2022/01/19 08:16:37;;;;;;;10.47;8.40;;;;;;;8.91;46.80;98976.97;8481566;27;20229;-67
2022/01/19 08:20:42;;;;;;;13.87;7.63;;;;;;;9.84;45.57;98973.06;8481600;28;20236;-67
2022/01/19 08:24:46;;;;;;;14.50;8.07;;;;;;;10.05;42.95;98973.41;8481466;28;20234;-67
2022/01/19 08:28:49;;;;;;;10.93;6.80;;;;;;;10.56;42.21;98967.72;8481386;28;20225;-67
2022/01/19 08:32:52;;;;;;;8.50;5.93;;;;;;;10.76;42.49;98962.81;8481625;28;20235;-67
2022/01/19 08:36:55;;;;;;;11.93;6.43;;;;;;;10.97;42.83;98963.09;8481378;28;20221;-67
2022/01/19 08:40:59;;;;;;;11.07;6.10;;;;;;;10.74;43.43;98961.19;8481342;28;20236;-67
2022/01/19 08:45:07;;;;;;;10.87;6.00;;;;;;;10.48;42.62;98946.38;8480985;28;20225;-67
2022/01/19 08:49:10;;;;;;;9.90;5.60;;;;;;;10.50;43.47;98948.03;8481351;28;20259;-67
2022/01/19 08:53:13;;;;;;;12.77;6.30;;;;;;;9.57;43.46;98943.56;8481213;28;20229;-68
2022/01/19 08:57:18;;;;;;;9.57;5.67;;;;;;;9.53;43.39;98935.03;8480993;28;20225;-67
2022/01/19 09:01:21;;;;;;;10.37;5.50;;;;;;;8.73;44.88;98943.75;8480882;28;20229;-67
2022/01/19 09:05:24;;;;;;;9.23;5.33;;;;;;;7.87;46.78;98940.25;8481532;28;20256;-67
2022/01/19 09:09:27;;;;;;;8.53;5.13;;;;;;;7.94;50.03;98936.66;8481097;28;20231;-76
2022/01/19 09:13:32;;;;;;;9.53;5.37;;;;;;;7.87;47.91;98940.25;8479700;28;20237;-75
2022/01/19 09:17:35;;;;;;;10.63;4.90;;;;;;;8.55;48.34;98938.09;8480245;28;20231;-75
2022/01/19 09:21:38;;;;;;;9.73;5.40;;;;;;;8.16;46.58;98930.22;8480459;28;20230;-68
2022/01/19 09:25:41;;;;;;;12.63;5.73;;;;;;;7.43;47.72;98919.50;8480577;28;20236;-68
2022/01/19 09:29:46;;;;;;;10.90;5.97;;;;;;;7.86;47.70;98911.00;8480176;28;20532;-68
2022/01/19 09:34:07;;;;;;;9.20;5.07;;;;;;;7.35;48.12;98904.19;8480544;28;20289;-67
2022/01/19 09:38:10;;;;;;;10.63;5.97;;;;;;;7.33;48.43;98908.50;8463698;28;20226;-73
2022/01/19 09:42:13;;;;;;;15.50;6.00;;;;;;;6.84;50.09;98915.25;8452611;28;20236;-70
2022/01/19 09:46:18;;;;;;;11.93;5.67;;;;;;;6.34;51.23;98908.16;8453058;28;20232;-70
2022/01/19 09:50:21;;;;;;;10.27;6.53;;;;;;;6.54;50.91;98911.34;8452709;28;20525;-70
2022/01/19 09:54:25;;;;;;;12.13;7.00;;;;;;;6.67;50.04;98904.31;8452271;28;20237;-70
2022/01/19 09:58:28;;;;;;;12.57;7.23;;;;;;;6.70;50.23;98906.88;8452571;28;20237;-69
2022/01/19 10:02:33;;;;;;;11.77;7.50;;;;;;;6.61;50.23;98909.56;8471419;27;20251;-71
2022/01/19 10:06:36;;;;;;;12.57;7.27;;;;;;;6.77;49.71;98915.34;8485774;27;20251;-71
2022/01/19 10:10:39;;;;;;;12.87;7.23;;;;;;;6.39;50.61;98901.25;8485621;27;20234;-71
2022/01/19 10:19:19;;;;;;;11.57;7.67;;;;;;;6.20;51.53;98903.19;8485427;28;20229;-70
2022/01/19 10:23:37;;;;;;;12.83;8.30;;;;;;;6.54;51.13;98895.06;8485303;28;20226;-70
2022/01/19 10:27:41;;;;;;;12.97;8.07;;;;;;;6.40;51.36;98888.38;8484980;28;20388;-71
2022/01/19 10:31:46;;;;;;;13.00;9.27;;;;;;;6.69;50.69;98889.72;8485557;28;20417;-71
2022/01/19 10:35:50;;;;;;;14.23;9.70;;;;;;;7.00;49.92;98876.38;8485063;27;20232;-70
2022/01/19 10:39:57;;;;;;;14.13;10.03;;;;;;;6.66;50.90;98871.72;8484822;28;20527;-71
2022/01/19 10:44:00;;;;;;;12.53;9.10;;;;;;;6.81;50.14;98881.78;8484544;27;20233;-72
2022/01/19 10:48:05;;;;;;;12.80;8.60;;;;;;;6.59;50.06;98878.69;8484787;28;20335;-71
2022/01/19 10:52:09;;;;;;;13.97;8.53;;;;;;;6.78;50.27;98873.28;8484696;28;20229;-70
2022/01/19 10:56:26;;;;;;;16.23;9.63;;;;;;;6.84;50.53;98861.16;8484415;27;20229;-71
2022/01/19 11:00:31;;;;;;;13.40;10.00;;;;;;;6.56;51.01;98862.44;8484097;28;20225;-71
2022/01/19 11:04:37;;;;;;;16.93;10.77;;;;;;;6.54;51.24;98865.03;8484655;28;20340;-71
2022/01/19 11:08:47;;;;;;;15.53;10.97;;;;;;;6.72;50.77;98855.34;8484567;28;20235;-74
2022/01/19 11:12:55;;;;;;;14.50;10.30;;;;;;;6.59;50.92;98840.09;8484022;28;20237;-73
2022/01/19 11:16:59;;;;;;;15.43;11.37;;;;;;;6.64;50.96;98832.28;8483740;27;20230;-70
2022/01/19 11:21:04;;;;;;;15.63;11.23;;;;;;;6.77;50.24;98828.66;8483953;28;20335;-70
2022/01/19 11:25:18;;;;;;;15.47;12.03;;;;;;;6.54;50.12;98823.84;8482753;28;20229;-71
2022/01/19 11:29:41;;;;;;;17.87;12.97;;;;;;;6.28;51.15;98811.34;8482471;28;20240;-71
2022/01/19 11:33:45;;;;;;;17.23;12.57;;;;;;;6.46;50.43;98798.22;8483164;27;20248;-70
2022/01/19 11:37:49;;;;;;;15.67;12.00;;;;;;;6.55;50.86;98778.38;8483022;27;20430;-71
2022/01/19 11:41:54;;;;;;;14.73;11.40;;;;;;;6.65;50.52;98777.38;8482582;28;20232;-71
2022/01/19 11:45:58;;;;;;;13.03;11.57;;;;;;;6.95;49.75;98764.84;8482426;28;20293;-71
2022/01/19 11:50:03;;;;;;;13.80;12.00;;;;;;;7.01;49.72;98757.06;8482754;28;20255;-71
2022/01/19 11:54:10;;;;;;;17.97;12.80;;;;;;;6.76;50.13;98746.28;8482194;28;20237;-70
2022/01/19 11:58:20;;;;;;;12.10;10.77;;;;;;;6.95;49.41;98737.41;8482778;28;20225;-70
2022/01/19 12:02:36;;;;;;;16.73;11.30;;;;;;;7.25;49.37;98722.25;8482502;27;20293;-71
2022/01/19 12:06:59;;;;;;;14.77;11.67;;;;;;;7.15;49.12;98706.13;8481744;28;20236;-70
2022/01/19 12:11:14;;;;;;;14.87;11.83;;;;;;;7.70;48.31;98698.19;8481971;28;20248;-71
2022/01/19 12:15:55;;;;;;;16.37;11.60;;;;;;;7.42;48.33;98697.03;8481777;28;20532;-74
2022/01/19 12:20:01;;;;;;;14.93;11.83;;;;;;;7.20;48.52;98688.88;8482043;27;20509;-66
2022/01/19 12:24:26;;;;;;;17.83;12.37;;;;;;;7.49;48.54;98681.44;8481383;28;20552;-66
2022/01/19 12:28:39;;;;;;;17.40;12.27;;;;;;;7.62;48.60;98688.03;8481263;27;20272;-66
2022/01/19 12:32:49;;;;;;;14.37;11.27;;;;;;;7.46;48.09;98684.06;8480785;28;20230;-67
2022/01/19 12:36:55;;;;;;;15.00;12.10;;;;;;;7.17;48.80;98685.50;8462091;28;20230;-67
2022/01/19 12:41:00;;;;;;;12.63;11.33;;;;;;;7.29;48.90;98677.53;8446526;28;20320;-66
2022/01/19 12:45:04;;;;;;;16.87;11.43;;;;;;;7.12;49.35;98677.00;8443460;28;20234;-67
2022/01/19 12:49:30;;;;;;;14.43;11.30;;;;;;;7.36;48.91;98673.09;8446252;28;20241;-65
2022/01/19 12:53:33;;;;;;;18.27;11.70;;;;;;;7.13;49.85;98676.97;8444641;28;20232;-68
2022/01/19 12:57:36;;;;;;;15.67;11.53;;;;;;;7.29;49.27;98667.25;8446119;28;20406;-67
2022/01/19 13:01:39;;;;;;;15.23;11.93;;;;;;;7.14;50.15;98663.22;8447348;28;20230;-67
2022/01/19 13:05:56;;;;;;;16.03;11.40;;;;;;;7.43;49.15;98651.47;8443738;28;20238;-67
2022/01/19 13:10:05;;;;;;;14.60;11.33;;;;;;;7.35;49.15;98648.19;8447204;28;20226;-67
2022/01/19 13:14:12;;;;;;;16.40;12.10;;;;;;;7.20;49.56;98629.59;8453892;28;20234;-67
2022/01/19 13:18:18;;;;;;;15.27;11.87;;;;;;;7.24;49.68;98630.41;8453898;28;20533;-67
2022/01/19 13:22:22;;;;;;;14.40;11.63;;;;;;;7.26;49.74;98613.19;8453524;28;20234;-67
2022/01/19 13:26:31;;;;;;;14.80;12.40;;;;;;;7.19;50.35;98617.59;8453803;28;20226;-67
2022/01/19 13:30:36;;;;;;;16.60;12.70;;;;;;;7.32;50.30;98600.16;8453125;28;20233;-68
2022/01/19 13:34:54;;;;;;;16.07;13.17;;;;;;;7.05;50.72;98604.16;8453325;28;20397;-67
2022/01/19 13:38:58;;;;;;;16.17;13.03;;;;;;;7.35;50.52;98583.78;8453341;28;20229;-67
2022/01/19 13:43:03;;;;;;;17.73;13.47;;;;;;;7.31;50.72;98572.72;8453186;28;20236;-67
2022/01/19 13:47:15;;;;;;;15.40;12.17;;;;;;;6.80;51.30;98565.19;8453182;28;20222;-67
2022/01/19 13:51:19;;;;;;;18.90;12.33;;;;;;;7.12;50.72;98564.53;8452992;28;20234;-67
2022/01/19 13:55:24;;;;;;;18.97;13.67;;;;;;;6.99;51.18;98557.94;8452874;28;20555;-67
2022/01/19 13:59:27;;;;;;;25.10;11.83;;;;;;;9.79;68.98;98561.03;8452175;28;20240;-69
2022/01/19 14:03:47;;;;;;;18.00;13.60;;;;;;;8.46;49.91;98548.50;8451545;28;20571;-66
2022/01/19 14:07:51;;;;;;;20.50;12.70;;;;;;;8.13;50.10;98557.91;8451930;28;20513;-66
2022/01/19 14:12:06;;;;;;;17.83;13.80;;;;;;;7.74;50.48;98548.53;8450239;28;20238;-67
2022/01/19 14:16:22;;;;;;;19.80;14.43;;;;;;;7.68;50.91;98540.13;8468235;28;20225;-67
2022/01/19 14:20:25;;;;;;;15.47;13.43;;;;;;;7.17;52.46;98531.78;8469231;27;20237;-68
2022/01/19 14:24:30;;;;;;;17.53;13.60;;;;;;;7.64;51.39;98514.41;8450932;28;20372;-67
2022/01/19 14:28:36;;;;;;;20.33;14.63;;;;;;;7.69;51.16;98523.75;8450959;28;20226;-64
2022/01/19 14:32:42;;;;;;;14.27;12.33;;;;;;;7.47;51.77;98520.84;8451530;28;20230;-66
2022/01/19 14:36:45;;;;;;;15.00;12.07;;;;;;;7.54;51.43;98514.63;8451046;28;20233;-65
2022/01/19 14:41:07;;;;;;;14.80;12.30;;;;;;;7.46;51.91;98504.50;8450871;28;20229;-65
2022/01/19 14:45:22;;;;;;;13.33;10.80;;;;;;;7.57;51.53;98509.44;8450991;28;20229;-65
2022/01/19 14:49:29;;;;;;;11.27;9.63;;;;;;;7.44;51.52;98506.28;8450940;28;20237;-65
2022/01/19 14:53:33;;;;;;;11.73;10.07;;;;;;;7.52;51.38;98491.50;8450178;28;20236;-66
2022/01/19 14:57:37;;;;;;;11.77;10.57;;;;;;;7.66;51.83;98498.06;8450278;28;20545;-67
2022/01/19 15:01:43;;;;;;;13.73;10.70;;;;;;;7.40;51.63;98492.59;8456572;28;20230;-65
2022/01/19 15:05:47;;;;;;;30.20;24.57;;;;;;;7.42;51.88;98484.84;8450350;28;20259;-62
2022/01/19 15:09:50;;;;;;;44.40;34.33;;;;;;;7.51;51.83;98470.91;8450030;28;20238;-63
2022/01/19 15:13:54;;;;;;;14.33;11.30;;;;;;;7.30;52.45;98469.69;8449302;28;20249;-63
2022/01/19 15:18:02;;;;;;;11.90;9.70;;;;;;;7.48;51.99;98469.25;8449968;28;20226;-62
2022/01/19 15:22:05;;;;;;;15.90;13.10;;;;;;;7.32;53.00;98475.66;8450171;28;20425;-63
2022/01/19 15:26:08;;;;;;;23.13;19.77;;;;;;;7.39;52.52;98472.91;8449576;28;20512;-63
2022/01/19 15:30:11;;;;;;;15.37;12.60;;;;;;;7.17;52.83;98469.13;8449546;28;20230;-62
2022/01/19 15:34:16;;;;;;;16.40;14.37;;;;;;;7.11;53.12;98459.78;8448013;28;20238;-62
2022/01/19 15:38:21;;;;;;;11.57;10.27;;;;;;;6.97;53.27;98447.22;8449154;28;20281;-62
2022/01/19 15:42:24;;;;;;;12.57;10.53;;;;;;;7.05;53.14;98452.22;8449013;28;20416;-63
2022/01/19 15:46:27;;;;;;;10.53;9.43;;;;;;;6.89;53.41;98463.72;8448780;28;20230;-63
2022/01/19 15:50:40;;;;;;;11.70;10.10;;;;;;;7.03;53.07;98462.53;8448407;28;20234;-63
2022/01/19 15:54:44;;;;;;;11.33;9.87;;;;;;;7.12;53.10;98456.34;8448382;28;20234;-62
2022/01/19 15:58:47;;;;;;;14.13;10.30;;;;;;;6.98;53.34;98455.78;8448440;28;20282;-63
2022/01/19 16:02:50;;;;;;;11.73;9.83;;;;;;;7.11;53.53;98453.81;8470640;28;20544;-63
2022/01/19 16:06:55;;;;;;;12.90;9.60;;;;;;;7.06;53.78;98456.47;8482104;27;20236;-63
2022/01/19 16:10:58;;;;;;;11.50;9.77;;;;;;;6.83;54.05;98463.00;8482017;28;20236;-62
2022/01/19 16:15:02;;;;;;;11.37;10.27;;;;;;;6.88;53.65;98447.44;8454589;28;20230;-62
2022/01/19 16:19:05;;;;;;;11.80;10.60;;;;;;;7.13;53.71;98457.19;8447667;28;20226;-63
2022/01/19 16:27:34;;;;;;;15.00;13.40;;;;;;;7.11;53.72;98456.38;8447250;28;20292;-63
2022/01/19 16:31:37;;;;;;;13.00;10.70;;;;;;;6.87;54.35;98442.31;8447526;28;20226;-63
2022/01/19 16:35:40;;;;;;;13.67;11.60;;;;;;;6.92;54.50;98433.59;8447452;28;20242;-63
2022/01/19 16:39:44;;;;;;;12.40;10.60;;;;;;;6.94;54.10;98437.00;8447446;28;20234;-63
2022/01/19 16:43:48;;;;;;;11.73;10.50;;;;;;;7.00;53.83;98430.84;8447299;28;20234;-62
2022/01/19 16:48:17;;;;;;;12.47;11.17;;;;;;;7.03;53.73;98426.50;8447105;28;20411;-63
2022/01/19 16:52:20;;;;;;;12.10;10.40;;;;;;;7.10;53.54;98416.91;8447329;28;20257;-62
2022/01/19 16:56:25;;;;;;;15.10;10.50;;;;;;;7.11;53.02;98421.16;8447921;28;20241;-63
2022/01/19 17:00:28;;;;;;;12.17;10.50;;;;;;;6.85;53.86;98402.00;8447170;28;20226;-66
2022/01/19 17:04:34;;;;;;;11.07;9.73;;;;;;;6.84;53.58;98404.63;8446649;28;20238;-66
2022/01/19 17:08:37;;;;;;;12.93;11.30;;;;;;;7.03;53.01;98387.84;8446763;28;20234;-67
2022/01/19 17:12:42;;;;;;;16.17;12.97;;;;;;;7.08;53.35;98381.75;8446796;28;20234;-67
2022/01/19 17:16:48;;;;;;;13.23;10.63;;;;;;;7.10;53.21;98375.69;8447078;28;20236;-67
2022/01/19 17:20:51;;;;;;;13.23;10.73;;;;;;;6.91;53.25;98374.41;8446747;28;20264;-67
2022/01/19 17:24:54;;;;;;;13.87;10.83;;;;;;;6.93;53.41;98380.38;8446440;28;20343;-67
2022/01/19 17:28:59;;;;;;;12.17;10.57;;;;;;;7.05;53.17;98382.69;8446957;28;20233;-67
2022/01/19 17:33:02;;;;;;;11.70;10.50;;;;;;;7.03;53.47;98384.44;8446602;28;20238;-67
2022/01/19 17:37:05;;;;;;;11.93;10.70;;;;;;;6.97;53.69;98392.31;8446446;28;20255;-67
2022/01/19 17:41:08;;;;;;;11.47;10.13;;;;;;;6.74;53.60;98391.09;8446511;28;20545;-66
2022/01/19 17:45:20;;;;;;;12.03;10.33;;;;;;;6.67;54.29;98380.97;8446553;28;20237;-70
2022/01/19 17:53:43;;;;;;;11.67;10.47;;;;;;;7.05;53.28;98392.97;8435514;28;20226;-73
2022/01/19 17:57:46;;;;;;;12.60;11.13;;;;;;;6.91;53.63;98390.72;8446560;28;20420;-71
2022/01/19 18:01:51;;;;;;;13.20;11.63;;;;;;;6.95;53.54;98396.63;8451890;28;20230;-70
2022/01/19 18:05:54;;;;;;;12.17;10.97;;;;;;;6.90;54.06;98394.16;8450941;28;20283;-70
2022/01/19 18:09:58;;;;;;;12.77;11.47;;;;;;;6.72;54.78;98394.56;8451598;28;20226;-71
2022/01/19 18:14:01;;;;;;;13.20;11.90;;;;;;;6.75;55.28;98392.78;8451953;28;20241;-71
2022/01/19 18:18:24;;;;;;;13.27;11.87;;;;;;;6.78;55.37;98397.03;8452024;28;20529;-71
2022/01/19 18:22:27;;;;;;;17.67;15.17;;;;;;;6.79;55.36;98388.41;8452064;28;20234;-70
2022/01/19 18:26:30;;;;;;;15.03;13.53;;;;;;;6.77;55.77;98387.59;8440825;28;20236;-70
2022/01/19 18:30:33;;;;;;;14.43;12.93;;;;;;;6.43;56.86;98385.75;8451294;28;20236;-70
2022/01/19 18:34:38;;;;;;;14.13;12.67;;;;;;;6.84;55.95;98390.00;8451366;28;20545;-72
2022/01/19 18:38:42;;;;;;;16.20;13.77;;;;;;;6.67;56.80;98389.53;8451198;28;20234;-72
2022/01/19 18:42:47;;;;;;;16.70;14.17;;;;;;;6.74;56.44;98388.53;8451205;28;20241;-72
2022/01/19 18:46:50;;;;;;;15.97;14.17;;;;;;;6.75;56.42;98384.22;8450763;28;20234;-71
2022/01/19 18:50:55;;;;;;;15.67;14.07;;;;;;;6.76;56.25;98391.91;8449678;28;20230;-72
2022/01/19 18:54:58;;;;;;;15.97;14.33;;;;;;;6.61;57.12;98389.69;8449766;28;20237;-71
2022/01/19 18:59:04;;;;;;;17.43;14.83;;;;;;;6.74;56.55;98388.53;8451098;28;20229;-72
2022/01/19 19:03:08;;;;;;;16.87;13.93;;;;;;;6.68;57.04;98382.66;8449963;28;20226;-71
2022/01/19 19:07:17;;;;;;;17.27;14.47;;;;;;;6.67;57.50;98394.69;8450392;28;20222;-71
2022/01/19 19:11:31;;;;;;;16.40;14.67;;;;;;;6.40;58.36;98384.09;8450013;28;20225;-71
2022/01/19 19:15:35;;;;;;;17.60;15.70;;;;;;;6.53;58.26;98392.41;8449624;28;20252;-70
2022/01/19 19:19:38;;;;;;;15.70;14.03;;;;;;;6.64;57.88;98387.03;8450096;28;20234;-71
2022/01/19 19:23:45;;;;;;;16.17;14.37;;;;;;;6.53;58.32;98387.28;8449999;28;20253;-71
2022/01/19 19:27:51;;;;;;;18.43;15.27;;;;;;;6.49;58.33;98379.63;8449650;28;20226;-72
2022/01/19 19:31:54;;;;;;;16.13;13.60;;;;;;;6.47;58.12;98374.50;8449305;28;20236;-71
2022/01/19 19:35:57;;;;;;;16.57;14.37;;;;;;;6.83;57.16;98369.44;8449457;28;20237;-71
2022/01/19 19:40:01;;;;;;;16.90;14.13;;;;;;;6.77;57.16;98367.84;8449272;28;20230;-71
2022/01/19 19:44:05;;;;;;;15.27;13.43;;;;;;;6.67;57.78;98373.25;8449043;28;20230;-71
2022/01/19 19:48:10;;;;;;;16.03;14.17;;;;;;;6.68;57.34;98374.94;8449233;28;20307;-71
2022/01/19 19:52:17;;;;;;;14.33;12.83;;;;;;;6.80;57.26;98372.94;8449129;28;20321;-71
2022/01/19 19:56:22;;;;;;;14.23;12.83;;;;;;;6.55;56.93;98367.50;8448711;28;20234;-71
2022/01/19 20:00:28;;;;;;;16.67;13.80;;;;;;;6.74;56.06;98361.91;8462064;28;20263;-72
2022/01/19 20:04:31;;;;;;;17.63;14.30;;;;;;;6.63;57.08;98360.44;8448402;28;20517;-72
2022/01/19 20:08:38;;;;;;;14.07;12.57;;;;;;;6.77;56.30;98370.44;8448042;28;20234;-71
2022/01/19 20:12:45;;;;;;;13.23;11.83;;;;;;;6.55;57.44;98374.34;8448126;28;20240;-71
2022/01/19 20:16:48;;;;;;;13.90;11.87;;;;;;;6.68;57.11;98374.94;8448146;28;20253;-71
2022/01/19 20:20:52;;;;;;;13.67;12.07;;;;;;;6.77;57.20;98377.31;8447684;28;20226;-71
2022/01/19 20:24:55;;;;;;;12.33;11.13;;;;;;;6.77;57.24;98369.59;8448120;28;20293;-71
2022/01/19 20:29:00;;;;;;;13.80;12.27;;;;;;;6.63;57.50;98368.16;8447693;28;20541;-71
2022/01/19 20:33:03;;;;;;;13.90;11.10;;;;;;;6.74;57.02;98367.94;8447779;28;20552;-71
2022/01/19 20:37:06;;;;;;;11.80;10.60;;;;;;;6.53;57.36;98368.38;8447630;28;20234;-71